Swift Current Airport
CYYN : now visible

Airfield :











YOU CAN JOIN US ON...

 
LOGIN :

Register | Disclaimer

   EN    FR    IT 

 









Legend :    VFR   Marginal VFR   IFR   Intensive IFR   Very Intensive IFR
Visi :
Ceiling :
>= 8 km
>= 3000ft
5 to 8 km
1000 to 3000 ft
1500m to 5 km
500 to 1000 ft
800 to 1500m
200 to 500 ft
< 800m
< 200 ft
Symbols :   Thunderstorms  Fog  Heavy snow  Heavy precipitations  Wind > 20 kt






- Airport Elevation : 2680 ft
- IATA code : YYN


CYYN - Swift Current

CURRENT METAR :
  • 192200Z AUTO 07005KT 9SM BKN075 OVC092 01/M01 A2978 RMK ICG SLP118

EXPIRED METARs :
  • 192100Z AUTO 06006KT 9SM OVC070 01/M02 A2977 RMK ICG INTMT SLP113
  • 192000Z AUTO 06006KT 9SM BKN070 OVC083 02/M01 A2975 RMK ICG INTMT SLP107

TAF TAF CYYN
Valid from the 19 at 12:00 until the 20 at 00:00 UTC


191139Z 1912/1924 22006KT P6SM SCT060 BKN120 OVC200
TEMPO 1915/1920 4SM -SN OVC060
FM192000 06012KT 6SM -SN OVC040
TEMPO 1920/1924 2SM -SN SCT006 OVC012
PROB40 1922/1924 1SM -SN OVC006 RMK FCST BASED ON AUTO OBS. NXT FCST BY 191800Z



MET'MAP, your aeronautical weather chart ! - Copyright ORBIFLY December 2007 - Disclaimer

ORBIFLY MET'MAP TEAM :

Programming & Development : Alexandra Zaïnal
Concept & Development : Baudouin d'Aumeries
Co-Development & Prog : Marc-Olivier Méhu
Technical & hardware support : Manuel Goepfert

Contact : metmap@orbifly.com




SOURCES & CREDITS :

   NOAA       Earth
Advisory